Time;durP1;ratioP1;P1;durP2;ratioP2;P2;SDS_P1;SDS_P2;PMS_P1;PMS_P2;Temp;Humidity;BMP_temperature;BMP_pressure;BME280_temperature;BME280_humidity;BME280_pressure;Samples;Min_cycle;Max_cycle;Signal;HPM_P1;HPM_P2
2021/07/16 00:01:36;;;;;;;0.00;0.00;;;15.70;99.90;;;;;;5013785;28;20187;-73
2021/07/16 00:04:02;;;;;;;0.10;0.10;;;15.70;99.90;;;;;;5031728;28;20092;-72
2021/07/16 00:06:28;;;;;;;0.10;0.10;;;15.40;99.90;;;;;;5030524;28;20033;-73
2021/07/16 00:08:54;;;;;;;0.10;0.10;;;15.30;99.90;;;;;;5031731;28;20032;-72
2021/07/16 00:11:20;;;;;;;0.10;0.10;;;15.40;99.90;;;;;;5031502;28;20029;-72
2021/07/16 00:13:46;;;;;;;0.05;0.05;;;15.40;99.90;;;;;;5031709;28;20029;-72
2021/07/16 00:16:11;;;;;;;0.10;0.10;;;15.30;99.90;;;;;;5031573;28;20029;-73
2021/07/16 00:18:37;;;;;;;0.10;0.10;;;15.40;99.90;;;;;;5031677;28;20093;-73
2021/07/16 00:21:03;;;;;;;0.10;0.10;;;15.30;99.90;;;;;;5031410;28;20377;-73
2021/07/16 00:23:30;;;;;;;0.10;0.10;;;15.30;99.90;;;;;;5031623;28;20025;-73
2021/07/16 00:25:57;;;;;;;0.10;0.10;;;15.30;99.90;;;;;;5031517;28;20022;-73
2021/07/16 00:28:23;;;;;;;0.10;0.10;;;15.30;99.90;;;;;;5031418;28;20025;-72
2021/07/16 00:30:50;;;;;;;0.00;0.00;;;15.30;99.90;;;;;;5031499;28;20021;-72
2021/07/16 00:33:17;;;;;;;0.10;0.10;;;15.20;99.90;;;;;;5032047;28;20021;-73
2021/07/16 00:35:43;;;;;;;0.10;0.10;;;15.20;99.90;;;;;;5034309;28;20029;-73
2021/07/16 00:38:08;;;;;;;0.10;0.10;;;15.30;99.90;;;;;;5035401;28;20033;-72
2021/07/16 00:40:34;;;;;;;0.08;0.08;;;15.30;99.90;;;;;;5035240;28;20034;-72
2021/07/16 00:43:00;;;;;;;0.10;0.10;;;15.30;99.90;;;;;;5033695;28;20032;-73
2021/07/16 00:45:26;;;;;;;0.10;0.10;;;15.40;99.90;;;;;;5033960;28;20032;-72
2021/07/16 00:47:52;;;;;;;0.10;0.10;;;15.30;99.90;;;;;;5033893;28;20440;-72
2021/07/16 00:50:22;;;;;;;0.10;0.10;;;15.20;99.90;;;;;;5035141;28;20467;-72
2021/07/16 00:52:48;;;;;;;0.05;0.05;;;15.00;99.90;;;;;;5033772;28;20022;-73
2021/07/16 00:55:15;;;;;;;0.10;0.10;;;15.10;99.90;;;;;;5017448;28;20017;-72
2021/07/16 00:57:42;;;;;;;0.00;0.00;;;15.00;99.90;;;;;;5033723;28;20049;-72
2021/07/16 01:00:09;;;;;;;0.10;0.10;;;15.00;99.90;;;;;;5035257;28;20031;-72
2021/07/16 01:02:35;;;;;;;0.00;0.00;;;15.10;99.90;;;;;;5033272;28;20041;-73
2021/07/16 01:05:03;;;;;;;0.00;0.00;;;15.00;99.90;;;;;;5033708;28;20032;-73
2021/07/16 01:07:29;;;;;;;1.38;0.45;;;14.90;99.90;;;;;;5034807;28;20396;-72
2021/07/16 01:09:55;;;;;;;0.00;0.00;;;15.00;99.90;;;;;;5033613;28;20108;-73
2021/07/16 01:12:22;;;;;;;0.00;0.00;;;15.10;99.90;;;;;;5034487;28;20128;-72
2021/07/16 01:14:49;;;;;;;0.10;0.10;;;15.20;99.90;;;;;;5034478;28;20553;-72
2021/07/16 01:17:15;;;;;;;0.10;0.10;;;15.10;99.90;;;;;;5033385;28;20101;-72
2021/07/16 01:19:57;;;;;;;0.10;0.10;;;14.90;99.90;;;;;;5034596;28;20515;-73
2021/07/16 01:22:26;;;;;;;0.08;0.08;;;14.90;99.90;;;;;;5033194;28;20021;-72
2021/07/16 01:24:53;;;;;;;0.10;0.10;;;14.90;99.90;;;;;;5034859;28;20021;-73
2021/07/16 01:27:20;;;;;;;0.08;0.08;;;14.80;99.90;;;;;;5034339;28;20056;-73
2021/07/16 01:29:47;;;;;;;0.10;0.10;;;14.80;99.90;;;;;;5016516;28;20035;-72
2021/07/16 01:32:15;;;;;;;0.10;0.10;;;15.00;99.90;;;;;;5034113;28;20032;-73
2021/07/16 01:34:41;;;;;;;0.00;0.00;;;15.00;99.90;;;;;;5016467;28;20030;-73
2021/07/16 01:37:07;;;;;;;0.10;0.10;;;14.90;99.90;;;;;;5034308;28;20545;-72
2021/07/16 01:39:33;;;;;;;0.10;0.10;;;14.90;99.90;;;;;;5034244;28;20057;-73
2021/07/16 01:42:02;;;;;;;0.10;0.10;;;14.90;99.90;;;;;;5032600;28;20027;-72
2021/07/16 01:44:28;;;;;;;0.10;0.10;;;14.90;99.90;;;;;;5032348;28;20100;-72
2021/07/16 01:46:53;;;;;;;0.10;0.10;;;14.80;99.90;;;;;;5016288;28;20437;-72
2021/07/16 01:49:19;;;;;;;0.10;0.10;;;14.60;99.90;;;;;;5032668;28;20029;-72
2021/07/16 01:51:45;;;;;;;0.20;0.20;;;14.30;99.90;;;;;;5032613;28;20076;-72
2021/07/16 01:54:11;;;;;;;0.20;0.20;;;14.30;99.90;;;;;;5032727;28;20021;-72
2021/07/16 01:56:36;;;;;;;0.00;0.00;;;14.10;99.90;;;;;;5033901;28;20029;-72
2021/07/16 01:59:03;;;;;;;0.10;0.10;;;14.10;99.90;;;;;;5033975;28;20104;-72
2021/07/16 02:01:29;;;;;;;0.10;0.10;;;14.10;99.90;;;;;;5033622;28;20037;-72
2021/07/16 02:03:54;;;;;;;0.10;0.10;;;14.30;99.90;;;;;;5015899;28;20033;-72
2021/07/16 02:06:20;;;;;;;0.03;0.03;;;14.40;99.90;;;;;;5032448;28;20385;-72
2021/07/16 02:08:46;;;;;;;0.10;0.10;;;14.60;99.90;;;;;;5033535;28;20033;-73
2021/07/16 02:11:12;;;;;;;0.10;0.10;;;14.60;99.90;;;;;;5033508;28;20029;-72
2021/07/16 02:13:38;;;;;;;0.03;0.03;;;14.60;99.90;;;;;;5033568;28;20075;-72
2021/07/16 02:16:05;;;;;;;0.10;0.10;;;14.50;99.90;;;;;;5033456;28;20032;-72
2021/07/16 02:18:33;;;;;;;0.00;0.00;;;14.30;99.90;;;;;;5015666;28;20026;-72
2021/07/16 02:20:58;;;;;;;0.00;0.00;;;14.20;99.90;;;;;;5015619;28;20436;-72
2021/07/16 02:23:27;;;;;;;0.10;0.10;;;14.20;99.90;;;;;;5032124;28;20026;-72
2021/07/16 02:25:53;;;;;;;0.10;0.10;;;14.30;99.90;;;;;;5032020;28;20084;-72
2021/07/16 02:28:23;;;;;;;0.10;0.10;;;14.20;99.90;;;;;;5032016;28;20026;-72
2021/07/16 02:30:50;;;;;;;0.10;0.10;;;14.20;99.90;;;;;;5031769;28;20444;-72
2021/07/16 02:33:16;;;;;;;0.00;0.00;;;14.20;99.90;;;;;;5033216;28;20022;-72
2021/07/16 02:35:44;;;;;;;0.10;0.10;;;14.40;99.90;;;;;;5031950;28;20434;-72
2021/07/16 02:38:10;;;;;;;0.10;0.10;;;14.60;99.90;;;;;;5033076;28;20097;-73
2021/07/16 02:40:36;;;;;;;0.10;0.10;;;14.50;99.90;;;;;;5033013;28;20541;-72
2021/07/16 02:43:03;;;;;;;0.08;0.08;;;14.50;99.90;;;;;;5031561;28;20061;-72
2021/07/16 02:45:29;;;;;;;0.10;0.10;;;14.40;99.90;;;;;;5033005;28;20029;-72
2021/07/16 02:47:55;;;;;;;0.10;0.10;;;14.50;99.90;;;;;;5031768;28;20075;-72
2021/07/16 02:50:28;;;;;;;0.00;0.00;;;14.50;99.90;;;;;;5031624;28;20436;-72
2021/07/16 02:52:55;;;;;;;0.10;0.10;;;14.60;99.90;;;;;;5031315;28;20509;-72
2021/07/16 02:55:21;;;;;;;0.10;0.10;;;14.70;99.90;;;;;;5031370;28;20108;-73
2021/07/16 02:57:48;;;;;;;0.10;0.10;;;14.70;99.90;;;;;;5014312;28;20124;-72
2021/07/16 03:00:20;;;;;;;0.00;0.00;;;14.80;99.90;;;;;;5031565;28;20438;-72
2021/07/16 03:02:48;;;;;;;0.10;0.10;;;14.80;99.90;;;;;;5031040;28;20041;-72
2021/07/16 03:05:22;;;;;;;0.10;0.10;;;14.90;99.90;;;;;;5032660;28;20048;-72
2021/07/16 03:07:48;;;;;;;0.10;0.10;;;14.80;99.90;;;;;;5032546;28;20037;-73
2021/07/16 03:10:35;;;;;;;0.10;0.10;;;14.70;99.90;;;;;;5032463;28;20029;-73
2021/07/16 03:13:05;;;;;;;0.10;0.10;;;14.60;99.90;;;;;;5014503;28;20017;-72
2021/07/16 03:15:31;;;;;;;0.10;0.10;;;14.60;99.90;;;;;;5030965;28;20018;-72
2021/07/16 03:17:57;;;;;;;0.10;0.10;;;14.50;99.90;;;;;;5031091;28;20029;-73
2021/07/16 03:20:29;;;;;;;0.10;0.10;;;14.60;99.90;;;;;;5032339;28;20033;-72
2021/07/16 03:22:56;;;;;;;0.10;0.10;;;14.50;99.90;;;;;;5014447;28;20025;-72
2021/07/16 03:25:23;;;;;;;0.10;0.10;;;14.60;99.90;;;;;;5032249;28;20068;-72
2021/07/16 03:27:50;;;;;;;0.10;0.10;;;14.70;99.90;;;;;;5032217;28;20045;-72
2021/07/16 03:30:19;;;;;;;0.00;0.00;;;14.50;99.90;;;;;;5032190;28;20030;-72
2021/07/16 03:32:45;;;;;;;0.10;0.10;;;14.50;99.90;;;;;;5031805;28;20025;-72
2021/07/16 03:35:13;;;;;;;0.30;0.30;;;14.40;99.90;;;;;;5032224;28;20096;-72
2021/07/16 03:37:39;;;;;;;0.00;0.00;;;14.60;99.90;;;;;;5030961;28;20385;-72
2021/07/16 03:40:08;;;;;;;0.10;0.10;;;14.60;99.90;;;;;;5032099;28;20079;-72
2021/07/16 03:42:35;;;;;;;0.10;0.10;;;14.60;99.90;;;;;;5031847;28;20025;-72
2021/07/16 03:45:01;;;;;;;0.00;0.00;;;14.60;99.90;;;;;;5030704;28;20021;-73
2021/07/16 03:47:26;;;;;;;0.10;0.10;;;14.70;99.90;;;;;;5032081;28;20132;-72
2021/07/16 03:49:52;;;;;;;0.10;0.10;;;14.70;99.90;;;;;;5030574;28;20186;-72
2021/07/16 03:52:18;;;;;;;0.10;0.10;;;14.60;99.90;;;;;;5030518;28;20163;-72
2021/07/16 03:54:44;;;;;;;0.03;0.03;;;14.50;99.90;;;;;;5031782;28;20028;-72
2021/07/16 03:57:09;;;;;;;0.10;0.10;;;14.30;99.90;;;;;;5032007;28;20018;-73
2021/07/16 03:59:35;;;;;;;0.10;0.10;;;14.30;99.90;;;;;;5030539;28;20028;-72
2021/07/16 04:02:03;;;;;;;0.08;0.08;;;14.30;99.90;;;;;;5031506;28;20029;-72
2021/07/16 04:04:29;;;;;;;0.10;0.10;;;14.30;99.90;;;;;;5014066;28;20370;-72
2021/07/16 04:06:57;;;;;;;0.00;0.00;;;14.20;99.90;;;;;;5031866;28;20040;-72
2021/07/16 04:09:27;;;;;;;0.05;0.05;;;14.20;99.90;;;;;;5035789;28;20432;-72
2021/07/16 04:12:09;;;;;;;0.10;0.10;;;14.20;99.90;;;;;;5035661;28;20072;-72
2021/07/16 04:14:38;;;;;;;0.10;0.10;;;14.20;99.90;;;;;;5017699;28;20393;-73
2021/07/16 04:17:06;;;;;;;0.10;0.10;;;14.30;99.90;;;;;;5035950;28;20100;-72
2021/07/16 04:19:32;;;;;;;0.10;0.10;;;14.50;99.90;;;;;;5035739;28;20029;-73
2021/07/16 04:21:59;;;;;;;0.03;0.03;;;14.70;99.90;;;;;;5034423;28;20504;-73
2021/07/16 04:24:24;;;;;;;0.00;0.00;;;14.90;99.90;;;;;;5035419;28;20043;-72
2021/07/16 04:26:50;;;;;;;0.00;0.00;;;14.90;99.90;;;;;;5017671;28;20120;-73
2021/07/16 04:29:16;;;;;;;0.00;0.00;;;15.00;99.90;;;;;;5034076;28;20036;-73
2021/07/16 04:31:42;;;;;;;0.10;0.10;;;15.00;99.90;;;;;;5035368;28;20105;-73
2021/07/16 04:34:08;;;;;;;0.10;0.10;;;15.20;99.90;;;;;;5035328;28;20100;-72
2021/07/16 04:36:33;;;;;;;0.10;0.10;;;15.30;99.90;;;;;;5035505;28;20022;-72
2021/07/16 04:38:59;;;;;;;0.00;0.00;;;15.40;99.90;;;;;;5034092;28;20036;-72
2021/07/16 04:41:25;;;;;;;0.00;0.00;;;15.40;99.90;;;;;;5033898;28;20032;-73
2021/07/16 04:43:50;;;;;;;0.10;0.10;;;15.40;99.90;;;;;;5035160;28;20052;-72
2021/07/16 04:46:16;;;;;;;0.15;0.15;;;15.50;99.90;;;;;;5034081;28;20029;-73
2021/07/16 04:48:42;;;;;;;0.10;0.10;;;15.50;99.90;;;;;;5033693;28;20026;-72
2021/07/16 04:51:07;;;;;;;0.10;0.10;;;15.50;99.90;;;;;;5017197;28;20018;-72
2021/07/16 04:53:33;;;;;;;0.10;0.10;;;15.50;99.90;;;;;;5033674;28;20025;-72
2021/07/16 04:55:59;;;;;;;0.00;0.00;;;15.50;99.90;;;;;;5035017;28;20418;-73
2021/07/16 04:58:25;;;;;;;0.10;0.10;;;15.50;99.90;;;;;;5033759;28;20477;-74
2021/07/16 05:00:50;;;;;;;0.40;0.40;;;15.50;99.90;;;;;;5033548;28;20049;-73
2021/07/16 05:03:16;;;;;;;0.10;0.10;;;15.60;99.90;;;;;;5033495;28;20540;-73
2021/07/16 05:05:42;;;;;;;0.10;0.10;;;15.60;99.90;;;;;;5034209;28;20017;-73
2021/07/16 05:08:07;;;;;;;0.10;0.10;;;15.70;99.90;;;;;;5042165;28;20028;-73
2021/07/16 05:10:33;;;;;;;0.08;0.08;;;15.70;99.90;;;;;;5034450;28;20029;-73
2021/07/16 05:12:59;;;;;;;0.10;0.10;;;15.70;99.90;;;;;;5033375;28;20022;-73
2021/07/16 05:15:25;;;;;;;0.10;0.10;;;15.70;99.90;;;;;;5048386;28;20096;-73
2021/07/16 05:17:50;;;;;;;0.15;0.15;;;15.60;99.90;;;;;;5053043;28;20013;-73
2021/07/16 05:20:16;;;;;;;0.13;0.13;;;15.40;99.90;;;;;;5053090;28;20044;-72
2021/07/16 05:22:42;;;;;;;0.10;0.10;;;15.40;99.90;;;;;;5049173;28;20017;-72
2021/07/16 05:25:09;;;;;;;0.00;0.00;;;15.50;99.90;;;;;;5039714;28;20025;-73
2021/07/16 05:27:34;;;;;;;0.10;0.10;;;15.50;99.90;;;;;;5035812;28;20030;-72
2021/07/16 05:30:00;;;;;;;0.10;0.10;;;15.50;99.90;;;;;;5034256;28;20033;-73
2021/07/16 05:32:26;;;;;;;0.10;0.10;;;15.60;99.90;;;;;;5034067;28;20079;-73
2021/07/16 05:34:52;;;;;;;0.10;0.10;;;15.60;99.90;;;;;;5032659;28;20473;-73
2021/07/16 05:37:17;;;;;;;0.10;0.10;;;15.60;99.90;;;;;;5033469;28;20635;-73
2021/07/16 05:39:43;;;;;;;0.10;0.10;;;15.60;99.90;;;;;;5047555;28;20043;-73
2021/07/16 05:42:09;;;;;;;0.10;0.10;;;15.50;99.90;;;;;;5028897;28;20025;-73
2021/07/16 05:44:35;;;;;;;0.10;0.10;;;15.50;99.90;;;;;;5053985;28;20036;-72
2021/07/16 05:47:01;;;;;;;0.10;0.10;;;15.50;99.90;;;;;;5041765;28;20108;-72
2021/07/16 05:49:27;;;;;;;0.10;0.10;;;15.40;99.90;;;;;;5033860;28;20392;-72
2021/07/16 05:51:53;;;;;;;0.75;0.30;;;15.10;99.90;;;;;;5032702;28;20037;-73
2021/07/16 05:54:19;;;;;;;0.10;0.10;;;15.20;99.90;;;;;;5034449;28;20025;-72
2021/07/16 05:56:45;;;;;;;0.10;0.10;;;15.20;99.90;;;;;;5053760;28;20384;-73
2021/07/16 05:59:11;;;;;;;0.10;0.10;;;15.20;99.90;;;;;;5052226;28;20322;-72
2021/07/16 06:01:37;;;;;;;0.00;0.00;;;15.30;99.90;;;;;;5053502;28;20040;-72
2021/07/16 06:04:09;;;;;;;0.10;0.10;;;15.60;99.90;;;;;;5038985;28;20071;-73
2021/07/16 06:06:36;;;;;;;0.10;0.10;;;15.60;99.90;;;;;;5033603;28;20026;-72
2021/07/16 06:09:04;;;;;;;0.35;0.10;;;15.80;99.90;;;;;;5032624;28;20021;-73
2021/07/16 06:11:30;;;;;;;0.10;0.10;;;15.80;99.90;;;;;;5030368;28;20018;-72
2021/07/16 06:14:13;;;;;;;0.10;0.10;;;15.70;99.90;;;;;;5054714;23;20045;-89
2021/07/16 06:17:25;;;;;;;0.10;0.10;;;15.70;99.90;;;;;;5017016;28;20456;-92
2021/07/16 06:19:57;;;;;;;0.10;0.10;;;15.60;99.90;;;;;;5017076;28;20048;-92
2021/07/16 06:22:34;;;;;;;0.10;0.10;;;15.80;99.90;;;;;;5012848;28;20040;-92
2021/07/16 06:25:25;;;;;;;0.10;0.10;;;15.90;99.90;;;;;;4998627;28;20037;-92
2021/07/16 06:28:02;;;;;;;0.10;0.10;;;16.20;99.90;;;;;;5001163;28;20030;-90
2021/07/16 06:30:41;;;;;;;;;;;;;;;;;;;;;
2021/07/16 06:33:39;;;;;;;0.10;0.10;;;16.70;99.90;;;;;;5025513;28;20018;-92
2021/07/16 06:36:05;;;;;;;0.10;0.10;;;16.80;99.90;;;;;;5046758;23;20447;-77
2021/07/16 06:38:31;;;;;;;0.10;0.10;;;16.90;99.90;;;;;;5076744;28;20059;-78
2021/07/16 06:40:58;;;;;;;0.10;0.10;;;17.00;99.90;;;;;;5073995;28;20529;-77
2021/07/16 06:43:23;;;;;;;0.00;0.00;;;17.10;99.90;;;;;;5077784;28;20031;-81
2021/07/16 06:45:49;;;;;;;0.10;0.10;;;17.10;99.90;;;;;;5060480;28;20028;-81
2021/07/16 06:48:15;;;;;;;0.10;0.10;;;17.10;99.90;;;;;;5059719;28;20549;-77
2021/07/16 06:50:40;;;;;;;0.10;0.10;;;17.20;99.90;;;;;;5074465;28;20052;-78
2021/07/16 06:53:06;;;;;;;0.10;0.10;;;17.30;99.90;;;;;;5072887;28;20099;-78
2021/07/16 06:55:32;;;;;;;0.10;0.10;;;17.40;99.90;;;;;;5061754;28;20047;-77
2021/07/16 06:57:57;;;;;;;0.10;0.10;;;17.50;99.90;;;;;;5076799;28;20536;-81
2021/07/16 07:00:23;;;;;;;0.10;0.10;;;17.50;99.90;;;;;;5059961;28;20043;-80
2021/07/16 07:02:49;;;;;;;0.10;0.10;;;17.30;99.90;;;;;;5080636;28;20024;-80
2021/07/16 07:05:15;;;;;;;0.10;0.10;;;17.20;99.90;;;;;;5080984;28;20024;-82
2021/07/16 07:07:40;;;;;;;0.17;0.17;;;17.30;99.90;;;;;;5082299;28;20021;-79
2021/07/16 07:10:07;;;;;;;0.10;0.10;;;17.20;99.90;;;;;;5062201;28;20074;-79
2021/07/16 07:12:33;;;;;;;0.10;0.10;;;17.20;99.90;;;;;;5062484;28;20072;-79
2021/07/16 07:14:58;;;;;;;0.03;0.03;;;17.20;99.90;;;;;;5078448;28;20031;-79
2021/07/16 07:17:24;;;;;;;0.10;0.10;;;17.30;99.90;;;;;;5064319;28;20361;-80
2021/07/16 07:19:50;;;;;;;0.10;0.10;;;17.40;99.90;;;;;;5057372;28;20029;-81
2021/07/16 07:22:15;;;;;;;0.10;0.10;;;17.50;99.90;;;;;;5077350;28;20035;-82
2021/07/16 07:24:41;;;;;;;0.10;0.10;;;17.40;99.90;;;;;;5078645;28;20036;-82
2021/07/16 07:27:07;;;;;;;0.10;0.10;;;17.40;99.90;;;;;;5080321;28;20044;-81
2021/07/16 07:29:33;;;;;;;0.10;0.10;;;17.20;99.90;;;;;;5064026;28;20031;-81
2021/07/16 07:32:00;;;;;;;0.00;0.00;;;17.40;99.90;;;;;;5069252;28;20017;-81
2021/07/16 07:34:25;;;;;;;0.10;0.10;;;17.50;99.90;;;;;;5085045;28;20114;-82
2021/07/16 07:36:52;;;;;;;0.13;0.13;;;17.60;99.90;;;;;;5069393;28;20036;-83
2021/07/16 07:39:18;;;;;;;0.08;0.08;;;17.50;99.90;;;;;;5068733;28;20154;-80
2021/07/16 07:41:47;;;;;;;0.10;0.10;;;17.60;99.90;;;;;;5086477;28;20029;-80
2021/07/16 07:44:14;;;;;;;0.10;0.10;;;17.80;99.90;;;;;;5085154;28;20028;-82
2021/07/16 07:46:40;;;;;;;0.10;0.10;;;17.90;99.90;;;;;;5086103;28;20044;-83
2021/07/16 07:49:07;;;;;;;0.00;0.00;;;17.90;99.90;;;;;;5068671;28;20025;-81
2021/07/16 07:51:33;;;;;;;0.10;0.10;;;18.00;99.90;;;;;;5085682;28;20502;-82
2021/07/16 07:54:00;;;;;;;0.10;0.10;;;18.10;99.90;;;;;;5085704;28;20031;-82
2021/07/16 07:56:26;;;;;;;0.10;0.10;;;18.20;99.90;;;;;;5068676;28;20029;-81
2021/07/16 07:58:52;;;;;;;0.10;0.10;;;18.10;99.90;;;;;;5087824;28;20020;-82
2021/07/16 08:01:19;;;;;;;0.10;0.10;;;17.90;99.90;;;;;;5086743;28;20032;-82
2021/07/16 08:03:45;;;;;;;0.10;0.10;;;17.90;99.90;;;;;;5069232;28;20024;-82
2021/07/16 08:06:10;;;;;;;0.05;0.05;;;17.90;99.90;;;;;;5085295;28;20068;-81
2021/07/16 08:08:36;;;;;;;0.10;0.10;;;18.00;99.90;;;;;;5085833;28;20009;-82
2021/07/16 08:11:02;;;;;;;0.20;0.20;;;18.20;99.90;;;;;;5068304;28;20039;-82
2021/07/16 08:13:28;;;;;;;0.10;0.10;;;18.20;99.90;;;;;;5084941;28;20025;-80
2021/07/16 08:15:55;;;;;;;0.10;0.10;;;18.30;99.90;;;;;;5083425;28;20303;-81
2021/07/16 08:18:21;;;;;;;0.00;0.00;;;18.40;99.90;;;;;;5065851;28;20426;-81
2021/07/16 08:20:47;;;;;;;0.10;0.10;;;18.30;99.90;;;;;;5059864;28;20024;-81
2021/07/16 08:23:12;;;;;;;0.10;0.10;;;18.30;99.90;;;;;;5065463;28;20029;-81
2021/07/16 08:25:38;;;;;;;0.10;0.10;;;18.30;99.90;;;;;;5083442;28;20475;-80
2021/07/16 08:28:05;;;;;;;0.10;0.10;;;18.30;99.90;;;;;;5083095;28;20029;-80
2021/07/16 08:30:31;;;;;;;0.10;0.10;;;18.30;99.90;;;;;;5082222;28;20029;-82
2021/07/16 08:32:57;;;;;;;0.10;0.10;;;18.40;99.90;;;;;;5083939;28;20081;-81
2021/07/16 08:35:23;;;;;;;0.10;0.10;;;18.30;99.90;;;;;;5082060;28;20720;-82
2021/07/16 08:37:48;;;;;;;0.68;0.68;;;18.20;99.90;;;;;;5066420;28;20021;-81
2021/07/16 08:40:15;;;;;;;0.10;0.10;;;18.10;99.90;;;;;;5069322;28;20056;-81
2021/07/16 08:42:45;;;;;;;0.10;0.10;;;18.20;99.90;;;;;;5065798;28;20483;-80
2021/07/16 08:45:11;;;;;;;3.50;2.58;;;18.20;99.90;;;;;;5082866;28;20028;-80
2021/07/16 08:47:37;;;;;;;0.10;0.10;;;18.00;99.90;;;;;;5066318;28;20025;-83
2021/07/16 08:50:06;;;;;;;0.10;0.10;;;18.20;99.90;;;;;;5082957;28;20021;-80
2021/07/16 08:52:32;;;;;;;0.10;0.10;;;18.20;99.90;;;;;;5083567;28;20052;-81
2021/07/16 08:55:00;;;;;;;0.13;0.13;;;18.30;99.90;;;;;;5067275;28;20051;-82
2021/07/16 08:57:28;;;;;;;0.20;0.20;;;18.40;99.90;;;;;;5085781;28;20027;-82
2021/07/16 08:59:54;;;;;;;0.05;0.05;;;18.40;99.90;;;;;;5088718;28;20020;-82
2021/07/16 09:02:25;;;;;;;0.10;0.10;;;18.30;99.90;;;;;;5086119;28;20052;-81
2021/07/16 09:04:58;;;;;;;0.10;0.10;;;18.30;99.90;;;;;;5087309;28;20028;-82
2021/07/16 09:07:23;;;;;;;0.10;0.10;;;18.40;99.90;;;;;;5069789;28;20360;-83
2021/07/16 09:09:49;;;;;;;0.28;0.28;;;18.30;99.90;;;;;;5067845;28;20048;-82
2021/07/16 09:12:15;;;;;;;0.10;0.10;;;18.30;99.90;;;;;;5069253;28;20021;-81
2021/07/16 09:14:42;;;;;;;0.10;0.10;;;18.20;99.90;;;;;;5086335;28;20372;-79
2021/07/16 09:17:16;;;;;;;0.10;0.10;;;18.20;99.90;;;;;;5069906;28;20016;-80
2021/07/16 09:19:47;;;;;;;0.10;0.10;;;18.50;99.90;;;;;;5070237;28;20025;-80
2021/07/16 09:22:23;;;;;;;0.10;0.10;;;18.50;99.90;;;;;;5081812;28;20021;-80
2021/07/16 09:24:57;;;;;;;0.10;0.10;;;18.60;99.90;;;;;;5085796;28;20039;-81
2021/07/16 09:27:43;;;;;;;0.10;0.10;;;18.70;99.90;;;;;;5085062;28;20042;-80
2021/07/16 09:30:13;;;;;;;0.17;0.17;;;18.90;99.90;;;;;;5084846;28;20013;-80
2021/07/16 09:33:00;;;;;;;0.05;0.05;;;19.00;99.90;;;;;;5068895;28;20026;-79
2021/07/16 09:35:30;;;;;;;0.10;0.10;;;18.90;99.90;;;;;;5086200;28;20041;-82
2021/07/16 09:38:07;;;;;;;0.10;0.10;;;19.20;99.90;;;;;;5085264;28;20394;-80
2021/07/16 09:40:35;;;;;;;5.28;1.92;;;19.40;99.90;;;;;;5084476;28;20074;-80
2021/07/16 09:43:09;;;;;;;0.10;0.10;;;19.50;99.90;;;;;;5083245;28;20024;-81
2021/07/16 09:45:37;;;;;;;0.10;0.10;;;19.50;99.90;;;;;;5082899;28;20044;-79
2021/07/16 09:48:33;;;;;;;0.03;0.03;;;19.60;99.90;;;;;;5069492;28;20086;-80
2021/07/16 09:51:23;;;;;;;0.10;0.10;;;19.90;99.90;;;;;;5065193;28;20392;-81
2021/07/16 09:54:03;;;;;;;0.10;0.10;;;20.20;99.90;;;;;;5064647;28;20021;-81
2021/07/16 09:56:31;;;;;;;0.10;0.10;;;20.30;99.90;;;;;;5065456;28;20024;-81
2021/07/16 09:59:06;;;;;;;0.10;0.10;;;20.40;99.90;;;;;;5084408;28;20020;-81
2021/07/16 10:01:34;;;;;;;0.00;0.00;;;20.50;99.90;;;;;;5078572;28;20021;-78
2021/07/16 10:04:01;;;;;;;0.00;0.00;;;20.60;99.90;;;;;;5075532;28;20087;-78
2021/07/16 10:06:28;;;;;;;0.10;0.10;;;20.90;99.90;;;;;;5075266;28;20028;-78
2021/07/16 10:08:57;;;;;;;0.00;0.00;;;21.10;99.90;;;;;;5058535;28;20016;-78
2021/07/16 10:11:26;;;;;;;0.00;0.00;;;20.80;98.20;;;;;;5074383;28;20070;-77
2021/07/16 10:13:54;;;;;;;0.00;0.00;;;20.70;99.30;;;;;;5071899;28;20058;-78
2021/07/16 10:16:20;;;;;;;0.10;0.10;;;20.90;98.50;;;;;;5071305;28;20047;-77
2021/07/16 10:18:46;;;;;;;0.10;0.10;;;21.20;97.00;;;;;;5071797;28;20074;-77
2021/07/16 10:21:12;;;;;;;0.08;0.08;;;21.40;96.10;;;;;;5071969;28;20016;-78
2021/07/16 10:23:39;;;;;;;0.10;0.10;;;21.60;94.90;;;;;;5072498;28;20028;-78
2021/07/16 10:26:09;;;;;;;0.03;0.03;;;21.70;96.10;;;;;;5073439;28;20361;-78
2021/07/16 10:28:42;;;;;;;0.00;0.00;;;22.00;94.30;;;;;;5072032;28;20431;-78
2021/07/16 10:31:29;;;;;;;0.00;0.00;;;21.60;93.40;;;;;;5054888;28;20486;-78
2021/07/16 10:34:14;;;;;;;0.00;0.00;;;21.50;94.80;;;;;;5071877;28;20020;-78
2021/07/16 10:36:42;;;;;;;0.10;0.10;;;21.20;92.80;;;;;;5061035;28;20059;-78
2021/07/16 10:39:18;;;;;;;0.10;0.10;;;21.30;92.60;;;;;;5073837;28;20081;-78
2021/07/16 10:41:44;;;;;;;0.00;0.00;;;21.50;91.50;;;;;;5053751;28;20112;-77
2021/07/16 10:44:13;;;;;;;0.00;0.00;;;22.40;89.40;;;;;;5073003;28;20025;-78
2021/07/16 10:46:44;;;;;;;0.00;0.00;;;23.20;85.20;;;;;;5073040;28;20547;-78
2021/07/16 10:49:12;;;;;;;0.10;0.10;;;23.80;83.50;;;;;;5053413;28;20021;-78
2021/07/16 10:51:40;;;;;;;0.00;0.00;;;23.80;80.80;;;;;;5073371;28;20032;-78
2021/07/16 10:54:11;;;;;;;0.30;0.30;;;24.00;81.10;;;;;;5074268;28;20031;-78
2021/07/16 10:56:42;;;;;;;0.00;0.00;;;23.40;77.90;;;;;;5071793;28;20020;-75
2021/07/16 10:59:09;;;;;;;0.00;0.00;;;22.80;79.20;;;;;;5072053;28;20021;-76
2021/07/16 11:01:41;;;;;;;0.10;0.10;;;22.80;79.60;;;;;;5070590;28;20050;-75
2021/07/16 11:04:26;;;;;;;;;;;23.30;77.50;;;;;;5072083;28;20507;-75
2021/07/16 11:06:57;;;;;;;0.00;0.00;;;23.80;74.50;;;;;;5067667;28;19911;-73
2021/07/16 11:09:42;;;;;;;1.25;0.30;;;24.30;74.90;;;;;;5069529;28;20059;-75
2021/07/16 11:12:23;;;;;;;0.00;0.00;;;24.50;72.30;;;;;;5070238;28;20419;-75
2021/07/16 11:14:49;;;;;;;0.00;0.00;;;24.60;72.00;;;;;;5070869;28;20020;-75
2021/07/16 11:17:30;;;;;;;0.00;0.00;;;24.70;69.10;;;;;;5069765;28;20025;-75
2021/07/16 11:20:12;;;;;;;0.00;0.00;;;24.60;68.50;;;;;;5069689;28;20036;-75
2021/07/16 11:22:58;;;;;;;0.10;0.10;;;24.70;67.90;;;;;;5068632;28;20097;-75
2021/07/16 11:25:25;;;;;;;1.67;0.47;;;24.70;67.80;;;;;;5070711;28;20025;-75
2021/07/16 11:27:51;;;;;;;0.00;0.00;;;24.80;69.50;;;;;;5068848;28;20032;-75
2021/07/16 11:30:17;;;;;;;0.65;0.15;;;25.10;68.90;;;;;;5070783;28;20067;-76
2021/07/16 11:32:42;;;;;;;0.00;0.00;;;25.40;66.50;;;;;;5069957;28;20021;-76
2021/07/16 11:35:12;;;;;;;0.00;0.00;;;25.50;65.00;;;;;;5070362;28;20046;-76
2021/07/16 11:37:47;;;;;;;0.20;0.20;;;25.50;66.80;;;;;;5071344;28;20032;-76
2021/07/16 11:40:16;;;;;;;0.00;0.00;;;24.90;64.40;;;;;;5064908;28;20020;-75
2021/07/16 11:42:45;;;;;;;0.03;0.03;;;25.00;65.80;;;;;;5051275;28;20480;-75
2021/07/16 11:45:17;;;;;;;0.00;0.00;;;25.30;64.60;;;;;;5050650;28;20033;-75
2021/07/16 11:47:42;;;;;;;0.28;0.20;;;25.80;63.10;;;;;;5051660;28;20063;-75
2021/07/16 11:50:11;;;;;;;0.00;0.00;;;26.10;61.90;;;;;;5051872;28;20570;-75
2021/07/16 11:52:39;;;;;;;0.00;0.00;;;25.60;62.30;;;;;;5051323;28;20063;-75
2021/07/16 11:55:11;;;;;;;0.00;0.00;;;25.40;63.00;;;;;;5052283;28;20492;-75
2021/07/16 11:57:46;;;;;;;0.00;0.00;;;25.00;62.60;;;;;;5060953;28;20090;-76
2021/07/16 12:00:12;;;;;;;0.00;0.00;;;24.80;64.20;;;;;;5050949;28;20067;-78
2021/07/16 12:02:38;;;;;;;0.43;0.43;;;24.50;64.00;;;;;;5051405;28;20392;-80
2021/07/16 12:05:04;;;;;;;0.00;0.00;;;24.30;65.80;;;;;;5053218;28;20025;-77
2021/07/16 12:07:38;;;;;;;0.10;0.10;;;24.00;69.10;;;;;;5052103;28;20049;-78
2021/07/16 12:10:17;;;;;;;0.10;0.10;;;24.00;68.70;;;;;;5035141;28;20037;-77
2021/07/16 12:12:44;;;;;;;0.00;0.00;;;23.80;68.20;;;;;;5049906;23;20028;-79
2021/07/16 12:15:15;;;;;;;0.10;0.10;;;23.80;69.60;;;;;;5053130;28;20055;-77
2021/07/16 12:17:50;;;;;;;0.00;0.00;;;23.70;68.80;;;;;;5054836;28;20051;-77
2021/07/16 12:20:17;;;;;;;0.10;0.10;;;23.70;69.40;;;;;;5052967;28;20033;-77
2021/07/16 12:22:44;;;;;;;0.00;0.00;;;23.70;67.50;;;;;;5053526;28;20495;-77
2021/07/16 12:25:15;;;;;;;0.00;0.00;;;24.00;67.80;;;;;;5053817;28;20025;-77
2021/07/16 12:27:41;;;;;;;0.00;0.00;;;24.30;66.30;;;;;;5053906;28;20032;-77
2021/07/16 12:30:13;;;;;;;0.00;0.00;;;24.20;63.00;;;;;;5057451;28;20032;-77
2021/07/16 12:32:48;;;;;;;0.08;0.08;;;24.00;64.60;;;;;;5058212;28;20044;-79
2021/07/16 12:35:19;;;;;;;0.00;0.00;;;23.80;65.50;;;;;;5057975;28;20021;-78
2021/07/16 12:37:48;;;;;;;0.13;0.13;;;23.70;68.40;;;;;;5060436;28;20021;-77
2021/07/16 12:40:20;;;;;;;0.00;0.00;;;23.80;65.90;;;;;;5059547;28;20025;-77
2021/07/16 12:43:06;;;;;;;0.00;0.00;;;23.50;66.90;;;;;;5042767;28;20076;-77
2021/07/16 12:45:48;;;;;;;0.00;0.00;;;23.60;66.20;;;;;;5059576;28;20029;-77
2021/07/16 12:48:26;;;;;;;0.00;0.00;;;23.70;64.90;;;;;;5061052;28;20032;-77
2021/07/16 12:50:53;;;;;;;0.00;0.00;;;23.70;63.80;;;;;;5059120;28;20021;-77
2021/07/16 12:53:39;;;;;;;0.00;0.00;;;23.80;64.50;;;;;;5061551;28;20032;-77
2021/07/16 12:56:26;;;;;;;0.00;0.00;;;23.80;65.10;;;;;;5042722;28;20480;-77